sensor_id;sensor_type;location;lat;lon;timestamp;pressure;altitude;pressure_sealevel;temperature;humidity
30463;BME280;17256;43.618;25.336;2022-09-12T00:02:19;99783.00;;;17.16;100.00
30463;BME280;17256;43.618;25.336;2022-09-12T00:04:59;100003.31;;;18.44;100.00
30463;BME280;17256;43.618;25.336;2022-09-12T00:07:33;99801.53;;;17.10;100.00
30463;BME280;17256;43.618;25.336;2022-09-12T00:10:02;99777.13;;;17.12;100.00
30463;BME280;17256;43.618;25.336;2022-09-12T00:12:32;100041.03;;;18.62;100.00
30463;BME280;17256;43.618;25.336;2022-09-12T00:14:59;99946.50;;;17.98;100.00
30463;BME280;17256;43.618;25.336;2022-09-12T00:17:29;99817.13;;;17.16;100.00
30463;BME280;17256;43.618;25.336;2022-09-12T00:19:59;100173.06;;;19.19;100.00
30463;BME280;17256;43.618;25.336;2022-09-12T00:22:28;99934.66;;;17.81;100.00
30463;BME280;17256;43.618;25.336;2022-09-12T00:25:01;100041.44;;;18.49;100.00
30463;BME280;17256;43.618;25.336;2022-09-12T00:27:32;99773.75;;;16.83;100.00
30463;BME280;17256;43.618;25.336;2022-09-12T00:30:04;99752.84;;;16.71;100.00
30463;BME280;17256;43.618;25.336;2022-09-12T00:32:33;99987.94;;;18.05;100.00
30463;BME280;17256;43.618;25.336;2022-09-12T00:35:26;99930.28;;;17.63;100.00
30463;BME280;17256;43.618;25.336;2022-09-12T00:38:16;100180.25;;;19.10;100.00
30463;BME280;17256;43.618;25.336;2022-09-12T00:41:34;100000.34;;;17.92;100.00
30463;BME280;17256;43.618;25.336;2022-09-12T00:47:12;100000.69;;;17.74;100.00
30463;BME280;17256;43.618;25.336;2022-09-12T00:50:08;100193.72;;;18.91;100.00
30463;BME280;17256;43.618;25.336;2022-09-12T00:53:03;100089.56;;;18.23;100.00
30463;BME280;17256;43.618;25.336;2022-09-12T00:56:00;100196.66;;;18.79;100.00
30463;BME280;17256;43.618;25.336;2022-09-12T00:58:57;100048.13;;;17.94;100.00
30463;BME280;17256;43.618;25.336;2022-09-12T01:01:32;99933.91;;;17.15;100.00
30463;BME280;17256;43.618;25.336;2022-09-12T01:04:00;100032.19;;;17.85;100.00
30463;BME280;17256;43.618;25.336;2022-09-12T01:06:41;100039.88;;;17.77;100.00
30463;BME280;17256;43.618;25.336;2022-09-12T01:09:15;100218.00;;;18.73;100.00
30463;BME280;17256;43.618;25.336;2022-09-12T01:11:50;100049.72;;;17.85;100.00
30463;BME280;17256;43.618;25.336;2022-09-12T01:14:19;100152.03;;;18.42;100.00
30463;BME280;17256;43.618;25.336;2022-09-12T01:16:46;99958.09;;;17.19;100.00
30463;BME280;17256;43.618;25.336;2022-09-12T01:22:59;100196.16;;;18.60;100.00
30463;BME280;17256;43.618;25.336;2022-09-12T01:32:07;99946.69;;;16.94;100.00
30463;BME280;17256;43.618;25.336;2022-09-12T01:35:06;99979.31;;;16.87;100.00
30463;BME280;17256;43.618;25.336;2022-09-12T01:38:03;100201.56;;;18.23;100.00
30463;BME280;17256;43.618;25.336;2022-09-12T01:40:54;100201.00;;;18.21;100.00
30463;BME280;17256;43.618;25.336;2022-09-12T01:46:58;99955.28;;;16.76;100.00
30463;BME280;17256;43.618;25.336;2022-09-12T01:49:51;99764.28;;;15.58;100.00
30463;BME280;17256;43.618;25.336;2022-09-12T01:53:11;100177.13;;;18.03;100.00
30463;BME280;17256;43.618;25.336;2022-09-12T01:56:14;99993.28;;;16.75;100.00
30463;BME280;17256;43.618;25.336;2022-09-12T02:01:38;99766.84;;;15.31;100.00
30463;BME280;17256;43.618;25.336;2022-09-12T02:04:27;99765.50;;;15.34;100.00
30463;BME280;17256;43.618;25.336;2022-09-12T02:07:15;99792.44;;;15.38;100.00
30463;BME280;17256;43.618;25.336;2022-09-12T02:09:58;99966.41;;;16.42;100.00
30463;BME280;17256;43.618;25.336;2022-09-12T02:12:44;99993.63;;;16.62;100.00
30463;BME280;17256;43.618;25.336;2022-09-12T02:15:35;100192.88;;;17.76;100.00
30463;BME280;17256;43.618;25.336;2022-09-12T02:18:52;100181.78;;;17.76;100.00
30463;BME280;17256;43.618;25.336;2022-09-12T02:21:29;99785.78;;;15.23;100.00
30463;BME280;17256;43.618;25.336;2022-09-12T02:24:05;100026.72;;;16.69;100.00
30463;BME280;17256;43.618;25.336;2022-09-12T02:26:46;99782.69;;;15.19;100.00
30463;BME280;17256;43.618;25.336;2022-09-12T02:29:21;100034.47;;;16.67;100.00
30463;BME280;17256;43.618;25.336;2022-09-12T02:32:37;99804.22;;;15.17;100.00
30463;BME280;17256;43.618;25.336;2022-09-12T02:35:15;100182.88;;;17.58;100.00
30463;BME280;17256;43.618;25.336;2022-09-12T02:40:54;100199.72;;;17.51;100.00
30463;BME280;17256;43.618;25.336;2022-09-12T02:44:05;100192.22;;;17.52;100.00
30463;BME280;17256;43.618;25.336;2022-09-12T02:47:10;99800.00;;;14.98;100.00
30463;BME280;17256;43.618;25.336;2022-09-12T02:49:49;99997.06;;;16.19;100.00
30463;BME280;17256;43.618;25.336;2022-09-12T02:52:36;100077.56;;;16.74;100.00
30463;BME280;17256;43.618;25.336;2022-09-12T02:55:16;100048.81;;;16.64;100.00
30463;BME280;17256;43.618;25.336;2022-09-12T02:58:17;99765.75;;;14.70;100.00
30463;BME280;17256;43.618;25.336;2022-09-12T03:01:21;100195.38;;;17.39;100.00
30463;BME280;17256;43.618;25.336;2022-09-12T03:13:27;100209.41;;;17.32;100.00
30463;BME280;17256;43.618;25.336;2022-09-12T03:22:48;100221.19;;;17.22;100.00
30463;BME280;17256;43.618;25.336;2022-09-12T03:28:16;100222.22;;;17.16;100.00
30463;BME280;17256;43.618;25.336;2022-09-12T03:30:52;99923.09;;;15.29;100.00
30463;BME280;17256;43.618;25.336;2022-09-12T03:33:46;100210.41;;;17.09;100.00
30463;BME280;17256;43.618;25.336;2022-09-12T03:36:17;99987.00;;;15.67;100.00
30463;BME280;17256;43.618;25.336;2022-09-12T03:38:53;100140.88;;;16.66;100.00
30463;BME280;17256;43.618;25.336;2022-09-12T03:41:21;99993.63;;;15.55;100.00
30463;BME280;17256;43.618;25.336;2022-09-12T03:43:51;99853.00;;;14.66;100.00
30463;BME280;17256;43.618;25.336;2022-09-12T03:46:17;99835.22;;;14.62;100.00
30463;BME280;17256;43.618;25.336;2022-09-12T03:48:46;100066.00;;;16.04;100.00
30463;BME280;17256;43.618;25.336;2022-09-12T03:51:27;99812.91;;;14.52;100.00
30463;BME280;17256;43.618;25.336;2022-09-12T03:53:55;100153.59;;;16.50;100.00
30463;BME280;17256;43.618;25.336;2022-09-12T03:56:22;100235.81;;;17.01;100.00
30463;BME280;17256;43.618;25.336;2022-09-12T03:58:49;99829.13;;;14.49;100.00
30463;BME280;17256;43.618;25.336;2022-09-12T04:01:25;100074.50;;;15.85;100.00
30463;BME280;17256;43.618;25.336;2022-09-12T04:03:55;100103.56;;;16.11;100.00
30463;BME280;17256;43.618;25.336;2022-09-12T04:10:48;99851.69;;;14.57;100.00
30463;BME280;17256;43.618;25.336;2022-09-12T04:13:31;100074.25;;;15.98;100.00
30463;BME280;17256;43.618;25.336;2022-09-12T04:16:19;100245.22;;;17.00;100.00
30463;BME280;17256;43.618;25.336;2022-09-12T04:20:10;100153.47;;;16.28;100.00
30463;BME280;17256;43.618;25.336;2022-09-12T04:24:23;99993.66;;;15.43;100.00
30463;BME280;17256;43.618;25.336;2022-09-12T04:28:14;100253.41;;;17.40;100.00
30463;BME280;17256;43.618;25.336;2022-09-12T04:32:22;100266.25;;;17.80;100.00
30463;BME280;17256;43.618;25.336;2022-09-12T04:36:16;100270.34;;;18.11;100.00
30463;BME280;17256;43.618;25.336;2022-09-12T04:39:33;100268.53;;;18.22;100.00
30463;BME280;17256;43.618;25.336;2022-09-12T04:42:31;100261.81;;;18.39;100.00
30463;BME280;17256;43.618;25.336;2022-09-12T04:46:17;100267.38;;;18.61;100.00
30463;BME280;17256;43.618;25.336;2022-09-12T04:49:25;100184.69;;;18.08;100.00
30463;BME280;17256;43.618;25.336;2022-09-12T04:52:15;99902.44;;;16.66;100.00
30463;BME280;17256;43.618;25.336;2022-09-12T04:55:46;99869.44;;;16.64;100.00
30463;BME280;17256;43.618;25.336;2022-09-12T04:59:19;100063.97;;;17.94;100.00
30463;BME280;17256;43.618;25.336;2022-09-12T05:02:15;100283.66;;;19.28;100.00
30463;BME280;17256;43.618;25.336;2022-09-12T05:05:12;100267.22;;;19.27;100.00
30463;BME280;17256;43.618;25.336;2022-09-12T05:08:17;99956.41;;;17.40;100.00
30463;BME280;17256;43.618;25.336;2022-09-12T05:11:00;100142.22;;;18.61;100.00
30463;BME280;17256;43.618;25.336;2022-09-12T05:13:41;99883.09;;;17.36;100.00
30463;BME280;17256;43.618;25.336;2022-09-12T05:16:12;100290.94;;;19.98;100.00
30463;BME280;17256;43.618;25.336;2022-09-12T05:18:40;100231.00;;;19.54;100.00
30463;BME280;17256;43.618;25.336;2022-09-12T05:21:15;100155.19;;;19.10;100.00
30463;BME280;17256;43.618;25.336;2022-09-12T05:23:42;99906.53;;;17.23;100.00
30463;BME280;17256;43.618;25.336;2022-09-12T05:26:16;99950.09;;;17.01;100.00
30463;BME280;17256;43.618;25.336;2022-09-12T05:28:59;99918.91;;;16.55;100.00
30463;BME280;17256;43.618;25.336;2022-09-12T05:31:27;100176.25;;;18.47;100.00
30463;BME280;17256;43.618;25.336;2022-09-12T05:33:56;100275.81;;;18.93;100.00
30463;BME280;17256;43.618;25.336;2022-09-12T05:36:26;100186.16;;;18.59;100.00
30463;BME280;17256;43.618;25.336;2022-09-12T05:38:55;100157.16;;;18.28;100.00
30463;BME280;17256;43.618;25.336;2022-09-12T05:41:23;100163.50;;;18.24;100.00
30463;BME280;17256;43.618;25.336;2022-09-12T05:43:53;100284.41;;;19.19;100.00
30463;BME280;17256;43.618;25.336;2022-09-12T05:46:22;100098.81;;;18.06;100.00
30463;BME280;17256;43.618;25.336;2022-09-12T05:48:53;100070.75;;;18.08;100.00
30463;BME280;17256;43.618;25.336;2022-09-12T05:51:27;100086.56;;;18.29;100.00
30463;BME280;17256;43.618;25.336;2022-09-12T05:53:59;100042.72;;;18.36;100.00
30463;BME280;17256;43.618;25.336;2022-09-12T05:56:30;100118.09;;;19.36;100.00
30463;BME280;17256;43.618;25.336;2022-09-12T05:59:01;100144.31;;;19.97;100.00
30463;BME280;17256;43.618;25.336;2022-09-12T06:01:36;100228.25;;;20.58;98.17
30463;BME280;17256;43.618;25.336;2022-09-12T06:04:06;100084.59;;;19.73;96.72
30463;BME280;17256;43.618;25.336;2022-09-12T06:06:44;100173.28;;;20.69;94.17
30463;BME280;17256;43.618;25.336;2022-09-12T06:09:15;99929.13;;;18.92;93.08
30463;BME280;17256;43.618;25.336;2022-09-12T06:11:45;100293.06;;;21.06;94.60
30463;BME280;17256;43.618;25.336;2022-09-12T06:14:14;99970.47;;;19.31;92.66
30463;BME280;17256;43.618;25.336;2022-09-12T06:16:42;99908.03;;;19.06;92.05
30463;BME280;17256;43.618;25.336;2022-09-12T06:19:15;100066.09;;;20.35;91.43
30463;BME280;17256;43.618;25.336;2022-09-12T06:21:43;100211.84;;;21.23;89.14
30463;BME280;17256;43.618;25.336;2022-09-12T06:24:10;100173.88;;;21.53;87.50
30463;BME280;17256;43.618;25.336;2022-09-12T06:26:37;100052.19;;;20.75;86.41
30463;BME280;17256;43.618;25.336;2022-09-12T06:29:04;100161.03;;;21.41;86.78
30463;BME280;17256;43.618;25.336;2022-09-12T06:31:34;100018.72;;;20.55;84.89
30463;BME280;17256;43.618;25.336;2022-09-12T06:34:04;100131.16;;;21.16;83.91
30463;BME280;17256;43.618;25.336;2022-09-12T06:36:32;100280.56;;;22.05;84.33
30463;BME280;17256;43.618;25.336;2022-09-12T06:39:02;100097.38;;;21.13;85.22
30463;BME280;17256;43.618;25.336;2022-09-12T06:41:31;99902.13;;;20.01;83.69
30463;BME280;17256;43.618;25.336;2022-09-12T06:44:00;100157.38;;;21.61;83.32
30463;BME280;17256;43.618;25.336;2022-09-12T06:46:27;100162.97;;;21.51;83.11
30463;BME280;17256;43.618;25.336;2022-09-12T06:48:58;100174.91;;;21.77;82.92
30463;BME280;17256;43.618;25.336;2022-09-12T06:51:26;100305.03;;;22.49;83.74
30463;BME280;17256;43.618;25.336;2022-09-12T06:53:56;100165.63;;;22.02;82.40
30463;BME280;17256;43.618;25.336;2022-09-12T06:56:24;100113.66;;;21.96;80.66
30463;BME280;17256;43.618;25.336;2022-09-12T06:58:52;100195.97;;;22.39;79.75
30463;BME280;17256;43.618;25.336;2022-09-12T07:01:26;100134.91;;;22.07;77.87
30463;BME280;17256;43.618;25.336;2022-09-12T07:03:57;100072.72;;;21.56;77.20
30463;BME280;17256;43.618;25.336;2022-09-12T07:06:26;100059.56;;;21.56;77.65
30463;BME280;17256;43.618;25.336;2022-09-12T07:08:57;100051.38;;;21.80;77.10
30463;BME280;17256;43.618;25.336;2022-09-12T07:11:26;100168.88;;;22.34;75.71
30463;BME280;17256;43.618;25.336;2022-09-12T07:13:55;100083.50;;;21.88;77.56
30463;BME280;17256;43.618;25.336;2022-09-12T07:16:21;100169.19;;;22.23;77.19
30463;BME280;17256;43.618;25.336;2022-09-12T07:18:52;100185.22;;;22.61;76.72
30463;BME280;17256;43.618;25.336;2022-09-12T07:21:31;100284.91;;;23.46;74.25
30463;BME280;17256;43.618;25.336;2022-09-12T07:24:09;100294.56;;;23.69;72.95
30463;BME280;17256;43.618;25.336;2022-09-12T07:26:36;100101.97;;;22.77;73.48
30463;BME280;17256;43.618;25.336;2022-09-12T07:29:03;100295.41;;;23.69;72.89
30463;BME280;17256;43.618;25.336;2022-09-12T07:31:29;100214.31;;;23.44;72.68
30463;BME280;17256;43.618;25.336;2022-09-12T07:34:03;100139.91;;;23.32;70.73
30463;BME280;17256;43.618;25.336;2022-09-12T07:36:31;100295.84;;;24.39;70.56
30463;BME280;17256;43.618;25.336;2022-09-12T07:38:58;100112.59;;;22.85;70.73
30463;BME280;17256;43.618;25.336;2022-09-12T07:41:31;100299.63;;;24.30;70.43
30463;BME280;17256;43.618;25.336;2022-09-12T07:44:14;100127.25;;;23.06;70.65
30463;BME280;17256;43.618;25.336;2022-09-12T07:46:46;100012.06;;;22.50;70.24
30463;BME280;17256;43.618;25.336;2022-09-12T07:49:12;100011.53;;;22.48;68.33
30463;BME280;17256;43.618;25.336;2022-09-12T07:51:39;100172.38;;;23.33;69.50
30463;BME280;17256;43.618;25.336;2022-09-12T07:54:08;100049.72;;;22.28;69.16
30463;BME280;17256;43.618;25.336;2022-09-12T07:56:34;100134.03;;;23.29;68.54
30463;BME280;17256;43.618;25.336;2022-09-12T07:59:00;100167.41;;;23.83;68.70
30463;BME280;17256;43.618;25.336;2022-09-12T08:01:28;100078.78;;;23.63;66.93
30463;BME280;17256;43.618;25.336;2022-09-12T08:03:59;100221.81;;;24.35;65.60
30463;BME280;17256;43.618;25.336;2022-09-12T08:06:33;99979.66;;;23.07;64.75
30463;BME280;17256;43.618;25.336;2022-09-12T08:09:02;100023.56;;;23.11;64.96
30463;BME280;17256;43.618;25.336;2022-09-12T08:11:34;99956.66;;;22.86;66.41
30463;BME280;17256;43.618;25.336;2022-09-12T08:14:06;100207.25;;;24.52;65.53
30463;BME280;17256;43.618;25.336;2022-09-12T08:16:37;100083.69;;;23.96;63.55
30463;BME280;17256;43.618;25.336;2022-09-12T08:19:18;100279.56;;;25.03;62.35
30463;BME280;17256;43.618;25.336;2022-09-12T08:21:47;100038.19;;;23.32;63.94
30463;BME280;17256;43.618;25.336;2022-09-12T08:24:16;100190.41;;;24.71;63.63
30463;BME280;17256;43.618;25.336;2022-09-12T08:26:43;100124.28;;;24.22;63.62
30463;BME280;17256;43.618;25.336;2022-09-12T08:29:09;100045.75;;;23.79;63.59
30463;BME280;17256;43.618;25.336;2022-09-12T08:31:37;100291.81;;;25.12;62.40
30463;BME280;17256;43.618;25.336;2022-09-12T08:34:04;100256.22;;;25.07;62.08
30463;BME280;17256;43.618;25.336;2022-09-12T08:36:32;100112.44;;;24.25;62.04
30463;BME280;17256;43.618;25.336;2022-09-12T08:39:05;100009.28;;;23.60;62.27
30463;BME280;17256;43.618;25.336;2022-09-12T08:41:48;100062.38;;;24.37;62.44
30463;BME280;17256;43.618;25.336;2022-09-12T08:47:29;100142.06;;;24.74;60.57
30463;BME280;17256;43.618;25.336;2022-09-12T08:50:05;100250.84;;;25.43;60.92
30463;BME280;17256;43.618;25.336;2022-09-12T08:53:12;100237.78;;;24.96;61.62
30463;BME280;17256;43.618;25.336;2022-09-12T08:56:05;100242.66;;;24.91;63.82
30463;BME280;17256;43.618;25.336;2022-09-12T08:58:39;100039.16;;;23.70;60.48
30463;BME280;17256;43.618;25.336;2022-09-12T09:04:09;100221.47;;;25.36;60.30
30463;BME280;17256;43.618;25.336;2022-09-12T09:09:53;100224.00;;;25.51;59.17
30463;BME280;17256;43.618;25.336;2022-09-12T09:12:50;100227.69;;;25.65;58.73
30463;BME280;17256;43.618;25.336;2022-09-12T09:19:50;100220.69;;;25.82;57.34
30463;BME280;17256;43.618;25.336;2022-09-12T09:25:55;99915.13;;;23.97;55.42
30463;BME280;17256;43.618;25.336;2022-09-12T09:28:33;99944.00;;;23.98;55.96
30463;BME280;17256;43.618;25.336;2022-09-12T09:31:13;99891.69;;;24.07;55.95
30463;BME280;17256;43.618;25.336;2022-09-12T09:33:50;99861.56;;;23.61;55.17
30463;BME280;17256;43.618;25.336;2022-09-12T09:36:36;99968.53;;;24.24;55.85
30463;BME280;17256;43.618;25.336;2022-09-12T09:45:20;99877.78;;;23.64;54.54
30463;BME280;17256;43.618;25.336;2022-09-12T09:50:49;99909.28;;;24.26;55.05
30463;BME280;17256;43.618;25.336;2022-09-12T09:56:41;99912.91;;;24.13;53.13
30463;BME280;17256;43.618;25.336;2022-09-12T09:59:24;100197.84;;;25.37;54.84
30463;BME280;17256;43.618;25.336;2022-09-12T10:02:20;99862.03;;;23.68;55.19
30463;BME280;17256;43.618;25.336;2022-09-12T10:04:57;100007.00;;;24.43;54.23
30463;BME280;17256;43.618;25.336;2022-09-12T10:07:31;100201.09;;;25.90;51.73
30463;BME280;17256;43.618;25.336;2022-09-12T10:10:19;100207.78;;;26.22;51.28
30463;BME280;17256;43.618;25.336;2022-09-12T10:13:27;100202.25;;;26.44;52.60
30463;BME280;17256;43.618;25.336;2022-09-12T10:16:32;100074.41;;;25.54;53.14
30463;BME280;17256;43.618;25.336;2022-09-12T10:19:33;99981.03;;;24.97;52.79
30463;BME280;17256;43.618;25.336;2022-09-12T10:23:22;100191.91;;;26.26;52.54
30463;BME280;17256;43.618;25.336;2022-09-12T10:26:01;100192.44;;;25.87;54.96
30463;BME280;17256;43.618;25.336;2022-09-12T10:32:58;99839.53;;;24.06;53.44
30463;BME280;17256;43.618;25.336;2022-09-12T10:36:03;100094.50;;;26.02;52.94
30463;BME280;17256;43.618;25.336;2022-09-12T10:40:38;100028.97;;;25.88;51.23
30463;BME280;17256;43.618;25.336;2022-09-12T10:50:50;99942.81;;;24.69;55.27
30463;BME280;17256;43.618;25.336;2022-09-12T10:57:19;100180.97;;;26.24;54.59
30463;BME280;17256;43.618;25.336;2022-09-12T11:00:20;99972.38;;;24.80;55.53
30463;BME280;17256;43.618;25.336;2022-09-12T11:08:50;100184.09;;;25.35;56.69
30463;BME280;17256;43.618;25.336;2022-09-12T11:13:20;100079.25;;;24.70;56.92
30463;BME280;17256;43.618;25.336;2022-09-12T11:18:48;100169.41;;;25.38;56.01
30463;BME280;17256;43.618;25.336;2022-09-12T11:34:15;100173.19;;;24.96;56.91
30463;BME280;17256;43.618;25.336;2022-09-12T11:37:23;99855.41;;;23.78;55.34
30463;BME280;17256;43.618;25.336;2022-09-12T11:40:31;100155.03;;;26.00;53.66
30463;BME280;17256;43.618;25.336;2022-09-12T11:44:17;99809.31;;;23.32;54.12
30463;BME280;17256;43.618;25.336;2022-09-12T11:47:14;100155.69;;;25.37;54.37
30463;BME280;17256;43.618;25.336;2022-09-12T11:50:24;100158.81;;;25.82;55.73
30463;BME280;17256;43.618;25.336;2022-09-12T11:53:18;99980.97;;;25.02;52.73
30463;BME280;17256;43.618;25.336;2022-09-12T11:56:33;99828.75;;;24.13;52.69
30463;BME280;17256;43.618;25.336;2022-09-12T12:03:07;99680.88;;;22.64;52.89
30463;BME280;17256;43.618;25.336;2022-09-12T12:06:16;100132.63;;;25.95;52.85
30463;BME280;17256;43.618;25.336;2022-09-12T12:09:21;99944.50;;;24.97;51.95
30463;BME280;17256;43.618;25.336;2022-09-12T12:30:59;99819.97;;;24.01;51.75
30463;BME280;17256;43.618;25.336;2022-09-12T12:33:51;100127.63;;;26.19;50.49
30463;BME280;17256;43.618;25.336;2022-09-12T12:40:24;100001.88;;;25.51;48.41
30463;BME280;17256;43.618;25.336;2022-09-12T12:43:30;99788.66;;;24.26;48.68
30463;BME280;17256;43.618;25.336;2022-09-12T12:50:45;100132.53;;;25.86;50.52
30463;BME280;17256;43.618;25.336;2022-09-12T12:58:01;100129.50;;;25.96;50.69
30463;BME280;17256;43.618;25.336;2022-09-12T13:00:38;100125.97;;;26.04;51.15
30463;BME280;17256;43.618;25.336;2022-09-12T13:03:37;99797.16;;;24.21;48.49
30463;BME280;17256;43.618;25.336;2022-09-12T13:14:48;99988.19;;;25.36;49.07
30463;BME280;17256;43.618;25.336;2022-09-12T13:17:38;100137.34;;;25.86;49.17
30463;BME280;17256;43.618;25.336;2022-09-12T13:20:23;99977.91;;;24.85;49.38
30463;BME280;17256;43.618;25.336;2022-09-12T13:22:57;99763.91;;;23.49;49.71
30463;BME280;17256;43.618;25.336;2022-09-12T13:25:33;99825.63;;;24.14;49.16
30463;BME280;17256;43.618;25.336;2022-09-12T13:28:15;99769.72;;;24.04;48.70
30463;BME280;17256;43.618;25.336;2022-09-12T13:34:15;100129.03;;;26.58;48.94
30463;BME280;17256;43.618;25.336;2022-09-12T13:43:14;99942.81;;;24.55;49.87
30463;BME280;17256;43.618;25.336;2022-09-12T13:45:56;99918.13;;;24.52;50.17
30463;BME280;17256;43.618;25.336;2022-09-12T13:48:23;99913.91;;;24.54;49.90
30463;BME280;17256;43.618;25.336;2022-09-12T13:50:52;99969.13;;;25.19;50.35
30463;BME280;17256;43.618;25.336;2022-09-12T13:53:22;99856.72;;;24.78;48.81
30463;BME280;17256;43.618;25.336;2022-09-12T13:55:55;100027.00;;;25.89;48.16
30463;BME280;17256;43.618;25.336;2022-09-12T13:58:33;99913.13;;;25.23;48.91
30463;BME280;17256;43.618;25.336;2022-09-12T14:06:47;99994.50;;;25.14;50.05
30463;BME280;17256;43.618;25.336;2022-09-12T14:09:21;99916.72;;;24.68;49.81
30463;BME280;17256;43.618;25.336;2022-09-12T14:11:48;99915.00;;;24.53;49.01
30463;BME280;17256;43.618;25.336;2022-09-12T14:14:38;99913.50;;;24.61;49.35
30463;BME280;17256;43.618;25.336;2022-09-12T14:17:18;100045.53;;;25.35;49.08
30463;BME280;17256;43.618;25.336;2022-09-12T14:19:48;99907.59;;;24.30;49.12
30463;BME280;17256;43.618;25.336;2022-09-12T14:22:14;99967.56;;;24.67;49.57
30463;BME280;17256;43.618;25.336;2022-09-12T14:24:47;99956.13;;;24.63;50.31
30463;BME280;17256;43.618;25.336;2022-09-12T14:27:25;99902.09;;;24.06;50.44
30463;BME280;17256;43.618;25.336;2022-09-12T14:30:07;99978.38;;;24.73;50.75
30463;BME280;17256;43.618;25.336;2022-09-12T14:32:34;100003.19;;;24.85;49.99
30463;BME280;17256;43.618;25.336;2022-09-12T14:35:18;100024.81;;;24.98;49.87
30463;BME280;17256;43.618;25.336;2022-09-12T14:37:47;99910.75;;;24.23;50.83
30463;BME280;17256;43.618;25.336;2022-09-12T14:40:20;100011.16;;;24.78;51.22
30463;BME280;17256;43.618;25.336;2022-09-12T14:42:50;99855.72;;;23.76;51.19
30463;BME280;17256;43.618;25.336;2022-09-12T14:45:31;99985.59;;;24.47;51.48
30463;BME280;17256;43.618;25.336;2022-09-12T14:47:59;100012.16;;;24.54;50.61
30463;BME280;17256;43.618;25.336;2022-09-12T14:50:31;100094.47;;;25.01;50.97
30463;BME280;17256;43.618;25.336;2022-09-12T14:53:21;100140.13;;;25.26;51.82
30463;BME280;17256;43.618;25.336;2022-09-12T14:56:08;100063.09;;;24.62;51.22
30463;BME280;17256;43.618;25.336;2022-09-12T14:58:35;100076.53;;;24.65;51.76
30463;BME280;17256;43.618;25.336;2022-09-12T15:08:54;99791.16;;;22.63;53.31
30463;BME280;17256;43.618;25.336;2022-09-12T15:11:21;99976.88;;;23.73;53.31
30463;BME280;17256;43.618;25.336;2022-09-12T15:13:47;99736.53;;;22.23;54.19
30463;BME280;17256;43.618;25.336;2022-09-12T15:16:13;100061.72;;;24.21;54.74
30463;BME280;17256;43.618;25.336;2022-09-12T15:18:40;100088.13;;;24.20;55.13
30463;BME280;17256;43.618;25.336;2022-09-12T15:21:09;100137.38;;;24.50;54.95
30463;BME280;17256;43.618;25.336;2022-09-12T15:23:41;99972.84;;;23.37;55.32
30463;BME280;17256;43.618;25.336;2022-09-12T15:26:20;100041.84;;;23.80;55.20
30463;BME280;17256;43.618;25.336;2022-09-12T15:28:47;100132.06;;;24.30;55.90
30463;BME280;17256;43.618;25.336;2022-09-12T15:33:48;99924.19;;;22.80;55.60
30463;BME280;17256;43.618;25.336;2022-09-12T15:36:16;100005.97;;;23.29;56.04
30463;BME280;17256;43.618;25.336;2022-09-12T15:38:45;99961.53;;;22.99;56.44
30463;BME280;17256;43.618;25.336;2022-09-12T15:41:20;99962.28;;;22.81;56.34
30463;BME280;17256;43.618;25.336;2022-09-12T15:43:46;100140.22;;;23.84;56.41
30463;BME280;17256;43.618;25.336;2022-09-12T15:46:14;99916.22;;;22.39;56.66
30463;BME280;17256;43.618;25.336;2022-09-12T15:48:48;99960.44;;;22.66;56.59
30463;BME280;17256;43.618;25.336;2022-09-12T15:51:19;99976.94;;;22.67;56.95
30463;BME280;17256;43.618;25.336;2022-09-12T15:53:47;99997.56;;;22.77;56.95
30463;BME280;17256;43.618;25.336;2022-09-12T15:56:19;100028.88;;;22.79;57.28
30463;BME280;17256;43.618;25.336;2022-09-12T15:58:58;100138.72;;;23.39;57.58
30463;BME280;17256;43.618;25.336;2022-09-12T16:01:28;99865.94;;;21.61;58.42
30463;BME280;17256;43.618;25.336;2022-09-12T16:03:54;99925.25;;;21.92;57.76
30463;BME280;17256;43.618;25.336;2022-09-12T16:06:20;100077.59;;;22.78;58.24
30463;BME280;17256;43.618;25.336;2022-09-12T16:08:46;100022.88;;;22.27;58.67
30463;BME280;17256;43.618;25.336;2022-09-12T16:11:27;99949.88;;;21.90;59.05
30463;BME280;17256;43.618;25.336;2022-09-12T16:13:54;99979.44;;;21.96;59.23
30463;BME280;17256;43.618;25.336;2022-09-12T16:16:22;99973.59;;;21.92;59.01
30463;BME280;17256;43.618;25.336;2022-09-12T16:18:53;100014.38;;;22.08;60.21
30463;BME280;17256;43.618;25.336;2022-09-12T16:24:10;99904.19;;;21.11;59.74
30463;BME280;17256;43.618;25.336;2022-09-12T16:26:38;99867.97;;;20.91;60.36
30463;BME280;17256;43.618;25.336;2022-09-12T16:29:05;100147.47;;;22.54;61.05
30463;BME280;17256;43.618;25.336;2022-09-12T16:31:36;99978.41;;;21.32;60.94
30463;BME280;17256;43.618;25.336;2022-09-12T16:34:09;100058.97;;;21.69;61.46
30463;BME280;17256;43.618;25.336;2022-09-12T16:36:50;99928.28;;;20.81;61.83
30463;BME280;17256;43.618;25.336;2022-09-12T16:39:17;100052.06;;;21.52;61.85
30463;BME280;17256;43.618;25.336;2022-09-12T16:41:46;100073.53;;;21.66;62.06
30463;BME280;17256;43.618;25.336;2022-09-12T16:44:33;100155.25;;;22.02;61.97
30463;BME280;17256;43.618;25.336;2022-09-12T16:47:21;100124.91;;;21.75;62.30
30463;BME280;17256;43.618;25.336;2022-09-12T16:49:48;99898.22;;;20.33;62.38
30463;BME280;17256;43.618;25.336;2022-09-12T16:52:18;99913.00;;;20.18;62.64
30463;BME280;17256;43.618;25.336;2022-09-12T16:54:45;99796.78;;;19.47;62.74
30463;BME280;17256;43.618;25.336;2022-09-12T16:57:11;100111.63;;;21.32;62.80